sensor_id;sensor_type;location;lat;lon;timestamp;pressure;altitude;pressure_sealevel;temperature;humidity
59588;BME280;45412;54.472;18.464;2023-04-26T00:01:53;99021.20;;;4.08;72.30
59588;BME280;45412;54.472;18.464;2023-04-26T00:04:43;99020.83;;;4.05;72.53
59588;BME280;45412;54.472;18.464;2023-04-26T00:07:30;99021.34;;;4.03;72.60
59588;BME280;45412;54.472;18.464;2023-04-26T00:10:17;99017.09;;;4.01;73.02
59588;BME280;45412;54.472;18.464;2023-04-26T00:13:04;99017.17;;;4.00;73.28
59588;BME280;45412;54.472;18.464;2023-04-26T00:15:51;99019.48;;;3.99;73.28
59588;BME280;45412;54.472;18.464;2023-04-26T00:18:38;99015.70;;;4.01;73.56
59588;BME280;45412;54.472;18.464;2023-04-26T00:21:24;99019.23;;;4.03;73.81
59588;BME280;45412;54.472;18.464;2023-04-26T00:24:11;99018.51;;;4.06;73.92
59588;BME280;45412;54.472;18.464;2023-04-26T00:26:57;99013.39;;;4.09;73.93
59588;BME280;45412;54.472;18.464;2023-04-26T00:29:43;99012.48;;;4.12;74.01
59588;BME280;45412;54.472;18.464;2023-04-26T00:32:30;99012.64;;;4.15;74.08
59588;BME280;45412;54.472;18.464;2023-04-26T00:35:17;99010.58;;;4.17;73.93
59588;BME280;45412;54.472;18.464;2023-04-26T00:38:04;99012.58;;;4.19;74.23
59588;BME280;45412;54.472;18.464;2023-04-26T00:40:52;99010.30;;;4.21;74.23
59588;BME280;45412;54.472;18.464;2023-04-26T00:43:39;99005.18;;;4.24;73.99
59588;BME280;45412;54.472;18.464;2023-04-26T00:46:26;99003.77;;;4.27;74.01
59588;BME280;45412;54.472;18.464;2023-04-26T00:49:17;99007.14;;;4.29;74.08
59588;BME280;45412;54.472;18.464;2023-04-26T00:52:04;99006.91;;;4.30;74.07
59588;BME280;45412;54.472;18.464;2023-04-26T00:54:52;99004.23;;;4.31;74.02
59588;BME280;45412;54.472;18.464;2023-04-26T00:57:39;99001.40;;;4.33;73.84
59588;BME280;45412;54.472;18.464;2023-04-26T01:00:26;98998.08;;;4.35;73.97
59588;BME280;45412;54.472;18.464;2023-04-26T01:03:13;98999.98;;;4.38;73.73
59588;BME280;45412;54.472;18.464;2023-04-26T01:06:00;99006.97;;;4.41;73.45
59588;BME280;45412;54.472;18.464;2023-04-26T01:08:46;99006.63;;;4.44;73.48
59588;BME280;45412;54.472;18.464;2023-04-26T01:11:36;99007.58;;;4.46;73.42
59588;BME280;45412;54.472;18.464;2023-04-26T01:14:23;99012.20;;;4.45;73.24
59588;BME280;45412;54.472;18.464;2023-04-26T01:17:10;99011.62;;;4.46;73.33
59588;BME280;45412;54.472;18.464;2023-04-26T01:19:58;99010.40;;;4.45;73.40
59588;BME280;45412;54.472;18.464;2023-04-26T01:22:46;99010.13;;;4.47;73.39
59588;BME280;45412;54.472;18.464;2023-04-26T01:25:34;99012.83;;;4.48;73.21
59588;BME280;45412;54.472;18.464;2023-04-26T01:28:21;99010.45;;;4.50;73.29
59588;BME280;45412;54.472;18.464;2023-04-26T01:31:09;99012.33;;;4.51;73.54
59588;BME280;45412;54.472;18.464;2023-04-26T01:33:55;99008.86;;;4.50;73.43
59588;BME280;45412;54.472;18.464;2023-04-26T01:36:42;99011.50;;;4.50;73.32
59588;BME280;45412;54.472;18.464;2023-04-26T01:39:28;99007.02;;;4.51;73.28
59588;BME280;45412;54.472;18.464;2023-04-26T01:42:14;99004.73;;;4.49;73.43
59588;BME280;45412;54.472;18.464;2023-04-26T01:45:01;99006.63;;;4.49;73.78
59588;BME280;45412;54.472;18.464;2023-04-26T01:48:07;99006.54;;;4.48;73.71
59588;BME280;45412;54.472;18.464;2023-04-26T01:50:54;99006.34;;;4.48;73.94
59588;BME280;45412;54.472;18.464;2023-04-26T01:53:41;99006.23;;;4.47;73.80
59588;BME280;45412;54.472;18.464;2023-04-26T01:56:27;99006.55;;;4.48;73.93
59588;BME280;45412;54.472;18.464;2023-04-26T01:59:14;99014.83;;;4.47;74.05
59588;BME280;45412;54.472;18.464;2023-04-26T02:02:00;99011.54;;;4.47;74.12
59588;BME280;45412;54.472;18.464;2023-04-26T02:04:47;99010.44;;;4.48;74.20
59588;BME280;45412;54.472;18.464;2023-04-26T02:07:34;99009.04;;;4.47;74.33
59588;BME280;45412;54.472;18.464;2023-04-26T02:10:21;99007.76;;;4.48;74.16
59588;BME280;45412;54.472;18.464;2023-04-26T02:13:07;99009.46;;;4.49;74.24
59588;BME280;45412;54.472;18.464;2023-04-26T02:15:53;99007.60;;;4.50;74.51
59588;BME280;45412;54.472;18.464;2023-04-26T02:18:40;99006.36;;;4.51;74.67
59588;BME280;45412;54.472;18.464;2023-04-26T02:21:28;99006.56;;;4.50;74.76
59588;BME280;45412;54.472;18.464;2023-04-26T02:24:16;99000.67;;;4.49;74.78
59588;BME280;45412;54.472;18.464;2023-04-26T02:27:02;98997.21;;;4.48;74.78
59588;BME280;45412;54.472;18.464;2023-04-26T02:29:50;98995.59;;;4.49;74.57
59588;BME280;45412;54.472;18.464;2023-04-26T02:32:36;98997.55;;;4.49;74.77
59588;BME280;45412;54.472;18.464;2023-04-26T02:35:23;98998.63;;;4.48;74.78
59588;BME280;45412;54.472;18.464;2023-04-26T02:38:10;99001.36;;;4.47;74.96
59588;BME280;45412;54.472;18.464;2023-04-26T02:41:01;99002.05;;;4.47;74.66
59588;BME280;45412;54.472;18.464;2023-04-26T02:43:49;99001.96;;;4.46;74.97
59588;BME280;45412;54.472;18.464;2023-04-26T02:46:35;99003.58;;;4.45;75.25
59588;BME280;45412;54.472;18.464;2023-04-26T02:49:22;99002.20;;;4.45;74.99
59588;BME280;45412;54.472;18.464;2023-04-26T02:52:09;99003.35;;;4.46;75.21
59588;BME280;45412;54.472;18.464;2023-04-26T02:54:56;99003.44;;;4.47;75.26
59588;BME280;45412;54.472;18.464;2023-04-26T02:57:43;99004.66;;;4.47;75.33
59588;BME280;45412;54.472;18.464;2023-04-26T03:00:31;99002.50;;;4.46;75.40
59588;BME280;45412;54.472;18.464;2023-04-26T03:03:19;99002.16;;;4.45;75.53
59588;BME280;45412;54.472;18.464;2023-04-26T03:06:07;98986.94;;;4.34;75.74
59588;BME280;45412;54.472;18.464;2023-04-26T03:08:54;98999.67;;;4.41;75.79
59588;BME280;45412;54.472;18.464;2023-04-26T03:11:41;98999.79;;;4.41;75.79
59588;BME280;45412;54.472;18.464;2023-04-26T03:14:27;98999.78;;;4.39;76.07
59588;BME280;45412;54.472;18.464;2023-04-26T03:17:14;99001.73;;;4.39;75.90
59588;BME280;45412;54.472;18.464;2023-04-26T03:20:02;99006.69;;;4.38;75.90
59588;BME280;45412;54.472;18.464;2023-04-26T03:22:52;99007.31;;;4.37;76.02
59588;BME280;45412;54.472;18.464;2023-04-26T03:25:38;99007.40;;;4.35;76.25
59588;BME280;45412;54.472;18.464;2023-04-26T03:28:25;99006.00;;;4.33;76.08
59588;BME280;45412;54.472;18.464;2023-04-26T03:31:12;99009.83;;;4.33;76.23
59588;BME280;45412;54.472;18.464;2023-04-26T03:33:59;99011.88;;;4.34;76.38
59588;BME280;45412;54.472;18.464;2023-04-26T03:36:46;99008.50;;;4.35;76.42
59588;BME280;45412;54.472;18.464;2023-04-26T03:39:33;99012.35;;;4.35;76.25
59588;BME280;45412;54.472;18.464;2023-04-26T03:42:20;99013.58;;;4.35;76.14
59588;BME280;45412;54.472;18.464;2023-04-26T03:45:07;99011.84;;;4.34;76.18
59588;BME280;45412;54.472;18.464;2023-04-26T03:47:55;99012.14;;;4.36;76.22
59588;BME280;45412;54.472;18.464;2023-04-26T03:50:42;99018.40;;;4.36;75.84
59588;BME280;45412;54.472;18.464;2023-04-26T03:53:30;99014.77;;;4.38;75.84
59588;BME280;45412;54.472;18.464;2023-04-26T03:56:16;99017.41;;;4.38;75.90
59588;BME280;45412;54.472;18.464;2023-04-26T03:59:03;99018.20;;;4.36;76.01
59588;BME280;45412;54.472;18.464;2023-04-26T04:01:49;99020.84;;;4.36;75.81
59588;BME280;45412;54.472;18.464;2023-04-26T04:04:36;99021.36;;;4.36;75.87
59588;BME280;45412;54.472;18.464;2023-04-26T04:07:22;99023.83;;;4.34;75.90
59588;BME280;45412;54.472;18.464;2023-04-26T04:10:09;99030.45;;;4.32;76.02
59588;BME280;45412;54.472;18.464;2023-04-26T04:13:02;99034.14;;;4.32;76.10
59588;BME280;45412;54.472;18.464;2023-04-26T04:15:53;99034.66;;;4.32;75.96
59588;BME280;45412;54.472;18.464;2023-04-26T04:18:40;99039.32;;;4.33;76.06
59588;BME280;45412;54.472;18.464;2023-04-26T04:21:27;99039.69;;;4.36;76.13
59588;BME280;45412;54.472;18.464;2023-04-26T04:24:16;99034.55;;;4.39;75.90
59588;BME280;45412;54.472;18.464;2023-04-26T04:27:03;99037.93;;;4.38;75.75
59588;BME280;45412;54.472;18.464;2023-04-26T04:29:52;99048.52;;;4.42;75.69
59588;BME280;45412;54.472;18.464;2023-04-26T04:32:40;99048.84;;;4.43;75.36
59588;BME280;45412;54.472;18.464;2023-04-26T04:35:30;99048.25;;;4.44;75.32
59588;BME280;45412;54.472;18.464;2023-04-26T04:38:20;99045.15;;;4.46;75.37
59588;BME280;45412;54.472;18.464;2023-04-26T04:41:07;99046.75;;;4.46;75.34
59588;BME280;45412;54.472;18.464;2023-04-26T04:43:53;99050.60;;;4.43;74.92
59588;BME280;45412;54.472;18.464;2023-04-26T04:46:44;99045.95;;;4.47;75.10
59588;BME280;45412;54.472;18.464;2023-04-26T04:49:30;99049.95;;;4.50;74.86
59588;BME280;45412;54.472;18.464;2023-04-26T04:52:16;99051.93;;;4.54;74.30
59588;BME280;45412;54.472;18.464;2023-04-26T04:55:05;99050.48;;;4.60;74.03
59588;BME280;45412;54.472;18.464;2023-04-26T04:57:54;99052.34;;;4.64;74.11
59588;BME280;45412;54.472;18.464;2023-04-26T05:00:41;99049.59;;;4.63;73.83
59588;BME280;45412;54.472;18.464;2023-04-26T05:03:37;99057.67;;;4.65;74.23
59588;BME280;45412;54.472;18.464;2023-04-26T05:06:24;99052.18;;;4.66;74.02
59588;BME280;45412;54.472;18.464;2023-04-26T05:09:12;99062.95;;;4.75;74.21
59588;BME280;45412;54.472;18.464;2023-04-26T05:12:00;99066.09;;;4.78;74.24
59588;BME280;45412;54.472;18.464;2023-04-26T05:14:46;99065.20;;;4.79;74.11
59588;BME280;45412;54.472;18.464;2023-04-26T05:17:35;99068.66;;;4.79;74.28
59588;BME280;45412;54.472;18.464;2023-04-26T05:20:51;99069.63;;;4.84;74.14
59588;BME280;45412;54.472;18.464;2023-04-26T05:23:37;99072.30;;;4.85;74.22
59588;BME280;45412;54.472;18.464;2023-04-26T05:26:24;99073.06;;;4.87;74.23
59588;BME280;45412;54.472;18.464;2023-04-26T05:29:38;99072.70;;;4.92;73.85
59588;BME280;45412;54.472;18.464;2023-04-26T05:32:44;99071.09;;;4.98;73.73
59588;BME280;45412;54.472;18.464;2023-04-26T05:35:43;99073.79;;;5.09;73.61
59588;BME280;45412;54.472;18.464;2023-04-26T05:38:31;99071.58;;;5.23;73.53
59588;BME280;45412;54.472;18.464;2023-04-26T05:41:19;99069.98;;;5.38;73.02
59588;BME280;45412;54.472;18.464;2023-04-26T05:44:08;99070.56;;;5.52;72.12
59588;BME280;45412;54.472;18.464;2023-04-26T05:46:55;99070.30;;;5.68;71.42
59588;BME280;45412;54.472;18.464;2023-04-26T05:49:44;99068.55;;;5.82;70.85
59588;BME280;45412;54.472;18.464;2023-04-26T05:52:33;99066.86;;;5.93;69.71
59588;BME280;45412;54.472;18.464;2023-04-26T05:55:21;99064.55;;;6.01;69.17
59588;BME280;45412;54.472;18.464;2023-04-26T05:58:09;99069.60;;;6.19;68.27
59588;BME280;45412;54.472;18.464;2023-04-26T06:00:56;99073.39;;;6.45;67.29
59588;BME280;45412;54.472;18.464;2023-04-26T06:03:44;99074.92;;;6.58;66.39
59588;BME280;45412;54.472;18.464;2023-04-26T06:06:36;99077.27;;;6.57;66.16
59588;BME280;45412;54.472;18.464;2023-04-26T06:09:22;99077.92;;;6.53;66.45
59588;BME280;45412;54.472;18.464;2023-04-26T06:12:10;99082.48;;;6.37;66.06
59588;BME280;45412;54.472;18.464;2023-04-26T06:14:59;99083.17;;;6.21;66.74
59588;BME280;45412;54.472;18.464;2023-04-26T06:17:47;99080.48;;;6.02;67.10
59588;BME280;45412;54.472;18.464;2023-04-26T06:20:35;99082.58;;;5.90;67.14
59588;BME280;45412;54.472;18.464;2023-04-26T06:23:24;99088.52;;;5.78;68.14
59588;BME280;45412;54.472;18.464;2023-04-26T06:26:11;99079.73;;;5.69;68.49
59588;BME280;45412;54.472;18.464;2023-04-26T06:28:58;99079.77;;;5.61;68.12
59588;BME280;45412;54.472;18.464;2023-04-26T06:31:44;99079.50;;;5.62;68.36
59588;BME280;45412;54.472;18.464;2023-04-26T06:34:31;99071.52;;;5.66;68.16
59588;BME280;45412;54.472;18.464;2023-04-26T06:37:19;99059.90;;;5.71;67.91
59588;BME280;45412;54.472;18.464;2023-04-26T06:40:07;99069.59;;;6.21;66.87
59588;BME280;45412;54.472;18.464;2023-04-26T06:42:54;99066.06;;;7.30;63.91
59588;BME280;45412;54.472;18.464;2023-04-26T06:45:53;99073.57;;;7.71;61.27
59588;BME280;45412;54.472;18.464;2023-04-26T06:48:40;99075.23;;;7.81;60.80
59588;BME280;45412;54.472;18.464;2023-04-26T06:51:26;99072.55;;;7.84;60.20
59588;BME280;45412;54.472;18.464;2023-04-26T06:54:14;99072.30;;;7.74;60.03
59588;BME280;45412;54.472;18.464;2023-04-26T06:57:01;99065.56;;;7.53;59.42
59588;BME280;45412;54.472;18.464;2023-04-26T06:59:48;99066.29;;;7.43;60.31
59588;BME280;45412;54.472;18.464;2023-04-26T07:02:34;99069.11;;;7.41;61.03
59588;BME280;45412;54.472;18.464;2023-04-26T07:05:21;99069.33;;;7.38;61.14
59588;BME280;45412;54.472;18.464;2023-04-26T07:08:07;99078.57;;;7.22;61.17
59588;BME280;45412;54.472;18.464;2023-04-26T07:10:54;99077.75;;;7.10;61.33
59588;BME280;45412;54.472;18.464;2023-04-26T07:13:40;99076.48;;;6.90;61.25
59588;BME280;45412;54.472;18.464;2023-04-26T07:16:27;99084.92;;;6.77;61.51
59588;BME280;45412;54.472;18.464;2023-04-26T07:19:13;99089.40;;;6.69;62.17
59588;BME280;45412;54.472;18.464;2023-04-26T07:22:00;99089.46;;;6.52;62.56
59588;BME280;45412;54.472;18.464;2023-04-26T07:24:47;99094.21;;;6.54;63.26
59588;BME280;45412;54.472;18.464;2023-04-26T07:27:33;99088.70;;;6.85;62.85
59588;BME280;45412;54.472;18.464;2023-04-26T07:30:19;99083.91;;;7.14;62.04
59588;BME280;45412;54.472;18.464;2023-04-26T07:33:06;99081.90;;;7.24;61.09
59588;BME280;45412;54.472;18.464;2023-04-26T07:35:55;99083.63;;;7.32;61.09
59588;BME280;45412;54.472;18.464;2023-04-26T07:38:44;99084.30;;;7.37;61.04
59588;BME280;45412;54.472;18.464;2023-04-26T07:41:31;99083.04;;;7.30;60.96
59588;BME280;45412;54.472;18.464;2023-04-26T07:44:18;99083.06;;;7.30;61.30
59588;BME280;45412;54.472;18.464;2023-04-26T07:47:04;99090.68;;;7.14;61.40
59588;BME280;45412;54.472;18.464;2023-04-26T07:49:52;99089.05;;;6.96;61.83
59588;BME280;45412;54.472;18.464;2023-04-26T07:52:39;99098.05;;;6.76;62.46
59588;BME280;45412;54.472;18.464;2023-04-26T07:55:26;99102.30;;;6.61;63.23
59588;BME280;45412;54.472;18.464;2023-04-26T07:58:12;99105.90;;;6.49;63.98
59588;BME280;45412;54.472;18.464;2023-04-26T08:00:59;99100.97;;;6.56;64.30
59588;BME280;45412;54.472;18.464;2023-04-26T08:03:46;99098.97;;;6.91;63.80
59588;BME280;45412;54.472;18.464;2023-04-26T08:06:33;99101.64;;;7.07;63.45
59588;BME280;45412;54.472;18.464;2023-04-26T08:09:20;99102.67;;;7.11;63.27
59588;BME280;45412;54.472;18.464;2023-04-26T08:12:07;99113.04;;;7.10;63.36
59588;BME280;45412;54.472;18.464;2023-04-26T08:14:54;99117.13;;;6.89;63.85
59588;BME280;45412;54.472;18.464;2023-04-26T08:17:41;99121.11;;;6.74;65.89
59588;BME280;45412;54.472;18.464;2023-04-26T08:20:27;99127.60;;;6.60;67.03
59588;BME280;45412;54.472;18.464;2023-04-26T08:23:14;99125.77;;;6.57;68.47
59588;BME280;45412;54.472;18.464;2023-04-26T08:26:01;99128.94;;;6.66;69.01
59588;BME280;45412;54.472;18.464;2023-04-26T08:28:48;99130.11;;;6.99;69.46
59588;BME280;45412;54.472;18.464;2023-04-26T08:31:35;99130.89;;;7.30;68.49
59588;BME280;45412;54.472;18.464;2023-04-26T08:34:28;99138.34;;;7.16;68.93
59588;BME280;45412;54.472;18.464;2023-04-26T08:37:14;99145.79;;;6.78;70.76
59588;BME280;45412;54.472;18.464;2023-04-26T08:40:01;99146.47;;;6.46;72.37
59588;BME280;45412;54.472;18.464;2023-04-26T08:42:49;99148.65;;;6.57;72.70
59588;BME280;45412;54.472;18.464;2023-04-26T08:45:40;99155.39;;;6.91;72.52
59588;BME280;45412;54.472;18.464;2023-04-26T08:48:28;99152.83;;;7.29;71.27
59588;BME280;45412;54.472;18.464;2023-04-26T08:51:20;99158.27;;;6.95;71.71
59588;BME280;45412;54.472;18.464;2023-04-26T08:54:07;99155.84;;;6.69;72.04
59588;BME280;45412;54.472;18.464;2023-04-26T08:56:57;99159.93;;;6.50;73.21
59588;BME280;45412;54.472;18.464;2023-04-26T08:59:44;99163.16;;;6.32;73.75
59588;BME280;45412;54.472;18.464;2023-04-26T09:02:31;99164.27;;;6.12;74.97
59588;BME280;45412;54.472;18.464;2023-04-26T09:05:21;99167.39;;;6.01;75.89
59588;BME280;45412;54.472;18.464;2023-04-26T09:08:15;99169.83;;;5.87;77.13
59588;BME280;45412;54.472;18.464;2023-04-26T09:11:05;99164.94;;;5.88;78.15
59588;BME280;45412;54.472;18.464;2023-04-26T09:13:52;99169.50;;;6.01;79.02
59588;BME280;45412;54.472;18.464;2023-04-26T09:16:38;99166.70;;;6.06;78.34
59588;BME280;45412;54.472;18.464;2023-04-26T09:19:40;99168.50;;;6.10;79.08
59588;BME280;45412;54.472;18.464;2023-04-26T09:22:35;99171.92;;;6.19;79.50
59588;BME280;45412;54.472;18.464;2023-04-26T09:25:29;99168.92;;;6.31;79.20
59588;BME280;45412;54.472;18.464;2023-04-26T09:28:21;99167.71;;;6.52;79.01
59588;BME280;45412;54.472;18.464;2023-04-26T09:31:08;99165.88;;;6.60;78.96
59588;BME280;45412;54.472;18.464;2023-04-26T09:33:59;99168.38;;;6.64;78.92
59588;BME280;45412;54.472;18.464;2023-04-26T09:36:50;99170.89;;;6.63;78.78
59588;BME280;45412;54.472;18.464;2023-04-26T09:39:40;99176.16;;;6.64;78.58
59588;BME280;45412;54.472;18.464;2023-04-26T09:42:26;99180.90;;;6.55;78.26
59588;BME280;45412;54.472;18.464;2023-04-26T09:45:12;99187.04;;;6.59;78.17
59588;BME280;45412;54.472;18.464;2023-04-26T09:48:15;99190.08;;;6.69;77.09
59588;BME280;45412;54.472;18.464;2023-04-26T09:53:48;99192.06;;;7.53;73.55
59588;BME280;45412;54.472;18.464;2023-04-26T09:56:35;99196.17;;;7.66;72.42
59588;BME280;45412;54.472;18.464;2023-04-26T09:59:22;99199.68;;;7.44;71.93
59588;BME280;45412;54.472;18.464;2023-04-26T10:05:01;99209.94;;;7.41;74.11
59588;BME280;45412;54.472;18.464;2023-04-26T10:07:49;99220.09;;;7.40;74.31
59588;BME280;45412;54.472;18.464;2023-04-26T10:10:37;99222.98;;;7.35;75.77
59588;BME280;45412;54.472;18.464;2023-04-26T10:13:23;99229.02;;;7.13;75.48
59588;BME280;45412;54.472;18.464;2023-04-26T10:16:09;99232.41;;;6.85;75.82
59588;BME280;45412;54.472;18.464;2023-04-26T10:18:57;99234.17;;;6.56;77.31
59588;BME280;45412;54.472;18.464;2023-04-26T10:21:44;99237.41;;;6.31;77.71
59588;BME280;45412;54.472;18.464;2023-04-26T10:24:34;99242.85;;;6.10;79.26
59588;BME280;45412;54.472;18.464;2023-04-26T10:27:46;99245.99;;;5.92;80.50
59588;BME280;45412;54.472;18.464;2023-04-26T10:30:53;99252.63;;;5.80;81.22
59588;BME280;45412;54.472;18.464;2023-04-26T10:33:39;99252.65;;;5.80;81.52
59588;BME280;45412;54.472;18.464;2023-04-26T10:36:26;99255.29;;;5.88;82.06
59588;BME280;45412;54.472;18.464;2023-04-26T10:39:17;99251.86;;;5.97;82.40
59588;BME280;45412;54.472;18.464;2023-04-26T10:42:27;99253.73;;;6.05;82.23
59588;BME280;45412;54.472;18.464;2023-04-26T10:45:28;99256.66;;;6.11;81.73
59588;BME280;45412;54.472;18.464;2023-04-26T10:51:11;99262.93;;;6.20;81.49
59588;BME280;45412;54.472;18.464;2023-04-26T10:53:57;99267.00;;;6.17;80.32
59588;BME280;45412;54.472;18.464;2023-04-26T10:59:34;99273.10;;;6.15;81.24
59588;BME280;45412;54.472;18.464;2023-04-26T11:03:02;99277.56;;;6.19;81.34
59588;BME280;45412;54.472;18.464;2023-04-26T11:05:52;99276.10;;;6.45;81.06
59588;BME280;45412;54.472;18.464;2023-04-26T11:08:39;99272.42;;;6.92;80.12
59588;BME280;45412;54.472;18.464;2023-04-26T11:11:25;99272.50;;;8.19;77.39
59588;BME280;45412;54.472;18.464;2023-04-26T11:14:15;99263.97;;;8.94;71.52
59588;BME280;45412;54.472;18.464;2023-04-26T11:17:06;99268.89;;;9.13;71.60
59588;BME280;45412;54.472;18.464;2023-04-26T11:19:53;99268.34;;;9.09;71.19
59588;BME280;45412;54.472;18.464;2023-04-26T11:22:40;99271.86;;;9.01;71.50
59588;BME280;45412;54.472;18.464;2023-04-26T11:25:28;99278.96;;;8.83;70.51
59588;BME280;45412;54.472;18.464;2023-04-26T11:28:17;99283.25;;;8.55;71.11
59588;BME280;45412;54.472;18.464;2023-04-26T11:31:05;99291.52;;;8.38;71.61
59588;BME280;45412;54.472;18.464;2023-04-26T11:33:52;99286.98;;;8.32;71.02
59588;BME280;45412;54.472;18.464;2023-04-26T11:36:38;99291.01;;;8.40;66.99
59588;BME280;45412;54.472;18.464;2023-04-26T11:39:25;99284.67;;;8.64;65.19
59588;BME280;45412;54.472;18.464;2023-04-26T11:42:12;99288.72;;;8.88;63.80
59588;BME280;45412;54.472;18.464;2023-04-26T11:44:59;99291.05;;;8.89;63.02
59588;BME280;45412;54.472;18.464;2023-04-26T11:47:46;99295.58;;;8.90;62.22
59588;BME280;45412;54.472;18.464;2023-04-26T11:50:35;99301.56;;;9.01;60.00
59588;BME280;45412;54.472;18.464;2023-04-26T11:53:23;99301.30;;;9.28;59.58
59588;BME280;45412;54.472;18.464;2023-04-26T11:56:20;99301.06;;;9.62;58.50
59588;BME280;45412;54.472;18.464;2023-04-26T11:59:08;99307.15;;;9.64;58.00
59588;BME280;45412;54.472;18.464;2023-04-26T12:01:56;99314.11;;;9.55;59.30
59588;BME280;45412;54.472;18.464;2023-04-26T12:04:43;99320.77;;;9.47;59.17
59588;BME280;45412;54.472;18.464;2023-04-26T12:07:35;99315.05;;;9.53;58.58
59588;BME280;45412;54.472;18.464;2023-04-26T12:10:29;99317.44;;;9.59;54.66
59588;BME280;45412;54.472;18.464;2023-04-26T12:13:16;99318.54;;;9.61;53.18
59588;BME280;45412;54.472;18.464;2023-04-26T12:16:07;99314.38;;;9.68;52.18
59588;BME280;45412;54.472;18.464;2023-04-26T12:19:11;99313.65;;;9.85;52.00
59588;BME280;45412;54.472;18.464;2023-04-26T12:21:58;99312.29;;;9.70;50.59
59588;BME280;45412;54.472;18.464;2023-04-26T12:24:45;99316.67;;;9.62;50.87
59588;BME280;45412;54.472;18.464;2023-04-26T12:27:33;99316.95;;;9.67;51.29
59588;BME280;45412;54.472;18.464;2023-04-26T12:30:20;99322.02;;;9.61;52.17
59588;BME280;45412;54.472;18.464;2023-04-26T12:33:20;99331.75;;;9.32;50.52
59588;BME280;45412;54.472;18.464;2023-04-26T12:36:11;99329.13;;;9.13;49.27
59588;BME280;45412;54.472;18.464;2023-04-26T12:38:57;99330.55;;;9.10;49.62
59588;BME280;45412;54.472;18.464;2023-04-26T12:41:46;99330.36;;;9.30;49.56
59588;BME280;45412;54.472;18.464;2023-04-26T12:44:32;99338.25;;;9.16;48.08
59588;BME280;45412;54.472;18.464;2023-04-26T12:47:20;99331.31;;;8.92;47.66
59588;BME280;45412;54.472;18.464;2023-04-26T12:50:07;99337.88;;;8.83;47.97
59588;BME280;45412;54.472;18.464;2023-04-26T12:52:54;99327.86;;;8.87;48.56
59588;BME280;45412;54.472;18.464;2023-04-26T12:55:41;99333.79;;;9.12;49.00
59588;BME280;45412;54.472;18.464;2023-04-26T12:58:27;99329.15;;;9.48;49.03
59588;BME280;45412;54.472;18.464;2023-04-26T13:01:14;99326.57;;;9.79;47.65
59588;BME280;45412;54.472;18.464;2023-04-26T13:04:05;99331.20;;;9.72;46.89
59588;BME280;45412;54.472;18.464;2023-04-26T13:07:07;99339.23;;;9.61;46.05
59588;BME280;45412;54.472;18.464;2023-04-26T13:09:54;99340.91;;;9.62;46.06
59588;BME280;45412;54.472;18.464;2023-04-26T13:12:41;99344.37;;;9.55;46.31
59588;BME280;45412;54.472;18.464;2023-04-26T13:15:27;99349.02;;;9.37;46.32
59588;BME280;45412;54.472;18.464;2023-04-26T13:18:15;99346.58;;;9.18;46.37
59588;BME280;45412;54.472;18.464;2023-04-26T13:21:03;99358.27;;;8.94;46.63
59588;BME280;45412;54.472;18.464;2023-04-26T13:23:50;99359.70;;;8.74;46.27
59588;BME280;45412;54.472;18.464;2023-04-26T13:26:38;99359.94;;;8.62;46.60
59588;BME280;45412;54.472;18.464;2023-04-26T13:29:24;99369.06;;;8.63;46.72
59588;BME280;45412;54.472;18.464;2023-04-26T13:32:12;99371.78;;;8.67;46.28
59588;BME280;45412;54.472;18.464;2023-04-26T13:34:58;99366.72;;;8.86;46.22
59588;BME280;45412;54.472;18.464;2023-04-26T13:37:45;99365.10;;;8.95;45.00
59588;BME280;45412;54.472;18.464;2023-04-26T13:40:31;99365.01;;;8.98;45.03
59588;BME280;45412;54.472;18.464;2023-04-26T13:43:19;99374.34;;;9.16;44.52
59588;BME280;45412;54.472;18.464;2023-04-26T13:46:05;99375.46;;;9.15;43.57
59588;BME280;45412;54.472;18.464;2023-04-26T13:48:53;99382.41;;;9.14;44.07
59588;BME280;45412;54.472;18.464;2023-04-26T13:51:41;99385.56;;;9.06;44.51
59588;BME280;45412;54.472;18.464;2023-04-26T13:54:28;99384.81;;;8.94;43.92
59588;BME280;45412;54.472;18.464;2023-04-26T13:57:14;99390.36;;;8.84;44.89
59588;BME280;45412;54.472;18.464;2023-04-26T14:00:02;99395.45;;;8.74;44.82
59588;BME280;45412;54.472;18.464;2023-04-26T14:02:57;99401.39;;;8.59;44.80
59588;BME280;45412;54.472;18.464;2023-04-26T14:05:44;99404.27;;;8.49;44.67
59588;BME280;45412;54.472;18.464;2023-04-26T14:08:30;99407.29;;;8.47;45.15
59588;BME280;45412;54.472;18.464;2023-04-26T14:11:19;99403.77;;;8.63;44.86
59588;BME280;45412;54.472;18.464;2023-04-26T14:14:05;99407.36;;;8.77;45.22
59588;BME280;45412;54.472;18.464;2023-04-26T14:16:55;99405.08;;;8.86;44.31
59588;BME280;45412;54.472;18.464;2023-04-26T14:19:44;99407.33;;;8.69;43.52
59588;BME280;45412;54.472;18.464;2023-04-26T14:22:31;99414.33;;;8.57;44.39
59588;BME280;45412;54.472;18.464;2023-04-26T14:25:18;99417.12;;;8.43;44.79
59588;BME280;45412;54.472;18.464;2023-04-26T14:28:05;99418.13;;;8.30;44.97
59588;BME280;45412;54.472;18.464;2023-04-26T14:30:53;99418.48;;;8.14;44.48
59588;BME280;45412;54.472;18.464;2023-04-26T14:33:40;99427.99;;;8.06;44.85
59588;BME280;45412;54.472;18.464;2023-04-26T14:36:26;99429.82;;;7.96;45.13
59588;BME280;45412;54.472;18.464;2023-04-26T14:39:12;99432.52;;;7.83;45.13
59588;BME280;45412;54.472;18.464;2023-04-26T14:41:59;99428.27;;;7.76;45.24
59588;BME280;45412;54.472;18.464;2023-04-26T14:44:46;99433.89;;;7.65;45.07
59588;BME280;45412;54.472;18.464;2023-04-26T14:47:33;99427.41;;;7.55;45.48
59588;BME280;45412;54.472;18.464;2023-04-26T14:50:20;99428.33;;;7.50;45.26
59588;BME280;45412;54.472;18.464;2023-04-26T14:53:06;99436.95;;;7.62;44.67
59588;BME280;45412;54.472;18.464;2023-04-26T14:55:57;99435.27;;;7.77;43.13
59588;BME280;45412;54.472;18.464;2023-04-26T14:58:44;99440.61;;;7.93;42.88
59588;BME280;45412;54.472;18.464;2023-04-26T15:01:31;99440.11;;;8.11;42.44
59588;BME280;45412;54.472;18.464;2023-04-26T15:04:18;99447.45;;;8.24;42.22